Airport View

Enter AWOS ICAO identifier for current METAR.

ex. KFNL

KPEO 111853Z AUTO 25019G26KT 10SM FEW060 M01/M12 A3015 RMK AO2 PK WND 23030/1836 SLP222 T10061122

11 Dec 2019 19:05

Frequency: 121.175

Phone: 315-536-4102

Other Area AWOS: KITH - KDSV - KELM - K6B9

TAF KITH 111721Z 1118/1218 25012G20KT P6SM SCT040 FM112000 28015G22KT P6SM BKN040 TEMPO 1123/1202 3SM -SHSN OVC025 FM120500 29008KT P6SM SCT040 FM121200 19006KT P6SM SKC